createdAt,value
2017-12-22T00:00:10.861Z,97187.06
2017-12-22T00:02:38.345Z,97188.37
2017-12-22T00:05:05.817Z,97178.44
2017-12-22T00:07:33.308Z,97186.78
2017-12-22T00:10:00.773Z,97187.67
2017-12-22T00:12:28.260Z,97184.91
2017-12-22T00:14:55.733Z,97187.48
2017-12-22T00:17:23.232Z,97187.98
2017-12-22T00:19:50.712Z,97184.75
2017-12-22T00:22:18.180Z,97185.57
2017-12-22T00:24:45.664Z,97186.27
2017-12-22T00:27:13.128Z,97191.69
2017-12-22T00:29:40.609Z,97191.66
2017-12-22T00:32:08.077Z,97186.67
2017-12-22T00:34:35.560Z,97185.42
2017-12-22T00:37:03.034Z,97190.84
2017-12-22T00:39:30.533Z,97181.95
2017-12-22T00:41:58.001Z,97183.60
2017-12-22T00:44:25.490Z,97187.42
2017-12-22T00:46:52.952Z,97182.64
2017-12-22T00:49:20.482Z,97182.73
2017-12-22T00:51:47.956Z,97178.52
2017-12-22T00:54:15.445Z,97181.44
2017-12-22T00:56:42.909Z,97181.77
2017-12-22T00:59:10.393Z,97183.85
2017-12-22T01:01:37.860Z,97185.11
2017-12-22T01:04:05.346Z,97181.34
2017-12-22T01:06:32.814Z,97187.22
2017-12-22T01:09:00.311Z,97182.11
2017-12-22T01:11:27.781Z,97182.02
2017-12-22T01:13:55.260Z,97185.34
2017-12-22T01:16:28.396Z,97183.67
2017-12-22T01:19:01.465Z,97179.41
2017-12-22T01:21:28.941Z,97180.28
2017-12-22T01:23:56.429Z,97176.12
2017-12-22T01:26:23.893Z,97183.05
2017-12-22T01:28:51.374Z,97175.80
2017-12-22T01:31:18.849Z,97174.37
2017-12-22T01:33:46.333Z,97173.91
2017-12-22T01:36:13.797Z,97165.45
2017-12-22T01:38:41.281Z,97179.33
2017-12-22T01:41:08.748Z,97169.91
2017-12-22T01:43:36.237Z,97171.28
2017-12-22T01:46:03.706Z,97170.79
2017-12-22T01:48:31.213Z,97170.22
2017-12-22T01:50:58.681Z,97168.46
2017-12-22T01:53:26.176Z,97171.58
2017-12-22T01:55:53.645Z,97170.72
2017-12-22T01:58:21.130Z,97171.17
2017-12-22T02:00:48.597Z,97164.93
2017-12-22T02:03:16.086Z,97154.70
2017-12-22T02:05:43.577Z,97153.85
2017-12-22T02:08:11.078Z,97153.14
2017-12-22T02:10:38.565Z,97155.63
2017-12-22T02:13:06.032Z,97150.48
2017-12-22T02:15:33.517Z,97149.11
2017-12-22T02:18:00.983Z,97150.95
2017-12-22T02:23:19.456Z,97150.26
2017-12-22T02:25:46.929Z,97147.03
2017-12-22T02:28:14.413Z,97154.06
2017-12-22T02:30:41.877Z,97144.48
2017-12-22T02:33:09.352Z,97150.39
2017-12-22T02:35:36.833Z,97141.53
2017-12-22T02:38:04.302Z,97146.36
2017-12-22T02:40:31.785Z,97140.06
2017-12-22T02:42:59.256Z,97141.50
2017-12-22T02:45:26.764Z,97137.87
2017-12-22T02:47:55.090Z,97134.53
2017-12-22T02:50:22.617Z,97136.84
2017-12-22T02:52:50.085Z,97134.41
2017-12-22T02:55:17.642Z,97134.45
2017-12-22T02:57:45.122Z,97143.70
2017-12-22T03:00:12.605Z,97143.70
2017-12-22T03:02:40.065Z,97138.69
2017-12-22T03:05:07.528Z,97136.52
2017-12-22T03:07:35.014Z,97137.34
2017-12-22T03:10:02.477Z,97138.98
2017-12-22T03:12:29.956Z,97133.98
2017-12-22T03:14:57.428Z,97137.78
2017-12-22T03:17:24.917Z,97134.00
2017-12-22T03:19:52.384Z,97132.34
2017-12-22T03:22:19.864Z,97128.56
2017-12-22T03:24:47.328Z,97126.89
2017-12-22T03:27:14.809Z,97122.20
2017-12-22T03:29:42.278Z,97125.08
2017-12-22T03:32:09.761Z,97123.06
2017-12-22T03:34:37.229Z,97126.89
2017-12-22T03:37:04.712Z,97125.60
2017-12-22T03:39:32.176Z,97126.86
2017-12-22T03:41:59.760Z,97121.47
2017-12-22T03:44:27.228Z,97123.94
2017-12-22T03:46:54.717Z,97127.59
2017-12-22T03:49:22.186Z,97126.34
2017-12-22T03:51:49.669Z,97125.98
2017-12-22T03:54:17.137Z,97129.03
2017-12-22T03:56:44.621Z,97127.30
2017-12-22T03:59:12.091Z,97127.73
2017-12-22T04:01:39.573Z,97130.72
2017-12-22T04:04:07.037Z,97126.19
2017-12-22T04:06:34.521Z,97129.52
2017-12-22T04:09:01.984Z,97132.34
2017-12-22T04:11:29.468Z,97131.52
2017-12-22T04:13:56.942Z,97131.60
2017-12-22T04:16:24.423Z,97122.23
2017-12-22T04:18:51.893Z,97119.92
2017-12-22T04:21:19.376Z,97125.36
2017-12-22T04:23:46.840Z,97127.91
2017-12-22T04:26:14.325Z,97116.55
2017-12-22T04:28:41.795Z,97124.60
2017-12-22T04:31:09.285Z,97125.45
2017-12-22T04:33:36.758Z,97127.23
2017-12-22T04:36:04.245Z,97122.49
2017-12-22T04:38:31.713Z,97120.33
2017-12-22T04:40:59.193Z,97117.45
2017-12-22T04:43:26.658Z,97117.84
2017-12-22T04:45:54.137Z,97118.72
2017-12-22T04:48:21.601Z,97119.92
2017-12-22T04:50:49.096Z,97114.63
2017-12-22T04:53:16.634Z,97109.83
2017-12-22T04:55:44.121Z,97114.53
2017-12-22T04:58:11.591Z,97116.88
2017-12-22T05:00:39.107Z,97113.37
2017-12-22T05:03:06.581Z,97107.59
2017-12-22T05:05:34.065Z,97109.15
2017-12-22T05:08:01.537Z,97105.44
2017-12-22T05:10:29.017Z,97103.30
2017-12-22T05:12:56.485Z,97105.02
2017-12-22T05:15:23.965Z,97108.89
2017-12-22T05:17:51.444Z,97101.19
2017-12-22T05:20:18.926Z,97099.31
2017-12-22T05:22:46.397Z,97097.61
2017-12-22T05:25:13.886Z,97089.00
2017-12-22T05:27:41.352Z,97088.09
2017-12-22T05:30:08.817Z,97088.15
2017-12-22T05:32:36.309Z,97093.45
2017-12-22T05:35:03.776Z,97084.53
2017-12-22T05:37:31.256Z,97088.95
2017-12-22T05:39:58.833Z,97084.09
2017-12-22T05:42:26.317Z,97100.45
2017-12-22T05:44:53.791Z,97095.25
2017-12-22T05:47:21.276Z,97096.30
2017-12-22T05:49:48.745Z,97097.97
2017-12-22T05:52:16.241Z,97094.75
2017-12-22T05:54:43.718Z,97096.97
2017-12-22T05:57:11.204Z,97095.77
2017-12-22T05:59:38.672Z,97090.27
2017-12-22T06:02:06.135Z,97088.98
2017-12-22T06:04:33.616Z,97088.39
2017-12-22T06:07:01.081Z,97088.89
2017-12-22T06:09:28.564Z,97086.55
2017-12-22T06:11:56.049Z,97089.48
2017-12-22T06:14:23.537Z,97091.50
2017-12-22T06:16:51.000Z,97094.98
2017-12-22T06:19:18.488Z,97091.20
2017-12-22T06:21:45.953Z,97087.72
2017-12-22T06:24:13.432Z,97088.51
2017-12-22T06:26:40.897Z,97085.70
2017-12-22T06:29:08.387Z,97079.70
2017-12-22T06:31:35.859Z,97078.91
2017-12-22T06:34:03.344Z,97078.23
2017-12-22T06:36:30.808Z,97076.56
2017-12-22T06:38:58.328Z,97084.52
2017-12-22T06:41:25.788Z,97076.57
2017-12-22T06:43:53.275Z,97082.95
2017-12-22T06:46:20.737Z,97081.16
2017-12-22T06:48:48.221Z,97082.10
2017-12-22T06:51:15.684Z,97086.90
2017-12-22T06:53:43.169Z,97089.89
2017-12-22T06:56:10.632Z,97090.01
2017-12-22T06:58:38.121Z,97083.80
2017-12-22T07:01:05.585Z,97084.91
2017-12-22T07:03:33.068Z,97082.74
2017-12-22T07:06:00.533Z,97079.67
2017-12-22T07:08:28.112Z,97084.65
2017-12-22T07:10:55.584Z,97085.67
2017-12-22T07:13:23.065Z,97085.84
2017-12-22T07:15:50.528Z,97093.78
2017-12-22T07:18:18.013Z,97101.05
2017-12-22T07:20:45.481Z,97107.74
2017-12-22T07:23:12.961Z,97104.00
2017-12-22T07:25:40.424Z,97104.30
2017-12-22T07:28:07.905Z,97107.16
2017-12-22T07:30:35.369Z,97107.10
2017-12-22T07:33:02.853Z,97106.70
2017-12-22T07:35:30.312Z,97100.98
2017-12-22T07:37:57.801Z,97096.47
2017-12-22T07:40:25.273Z,97102.30
2017-12-22T07:42:52.781Z,97101.77
2017-12-22T07:45:20.248Z,97098.77
2017-12-22T07:47:47.745Z,97098.13
2017-12-22T07:50:15.272Z,97097.81
2017-12-22T07:52:42.752Z,97099.55
2017-12-22T07:55:10.228Z,97094.30
2017-12-22T07:57:37.733Z,97092.22
2017-12-22T08:00:05.222Z,97095.77
2017-12-22T08:02:32.704Z,97096.73
2017-12-22T08:05:00.189Z,97092.95
2017-12-22T08:07:27.657Z,97100.53
2017-12-22T08:09:55.263Z,97108.33
2017-12-22T08:12:22.733Z,97105.63
2017-12-22T08:14:50.213Z,97107.11
2017-12-22T08:17:17.684Z,97110.36
2017-12-22T08:19:45.145Z,97108.69
2017-12-22T08:22:12.625Z,97101.16
2017-12-22T08:24:40.092Z,97106.23
2017-12-22T08:27:07.572Z,97103.55
2017-12-22T08:29:35.037Z,97105.38
2017-12-22T08:32:02.560Z,97104.66
2017-12-22T08:34:30.049Z,97107.28
2017-12-22T08:36:57.557Z,97105.83
2017-12-22T08:39:25.040Z,97106.46
2017-12-22T08:41:52.506Z,97101.86
2017-12-22T08:44:19.972Z,97104.96
2017-12-22T08:46:47.457Z,97104.77
2017-12-22T08:49:14.917Z,97102.09
2017-12-22T08:51:42.401Z,97101.72
2017-12-22T08:54:09.870Z,97107.91
2017-12-22T08:56:37.336Z,97104.47
2017-12-22T08:59:04.840Z,97111.59
2017-12-22T09:01:32.492Z,97102.55
2017-12-22T09:03:59.974Z,97106.39
2017-12-22T09:06:27.437Z,97108.16
2017-12-22T09:08:54.953Z,97114.20
2017-12-22T09:11:22.433Z,97115.11
2017-12-22T09:13:49.941Z,97111.14
2017-12-22T09:16:17.433Z,97110.09
2017-12-22T09:18:44.901Z,97104.48
2017-12-22T09:21:12.365Z,97106.63
2017-12-22T09:23:39.859Z,97103.94
2017-12-22T09:26:07.320Z,97101.00
2017-12-22T09:28:34.805Z,97100.05
2017-12-22T09:31:02.285Z,97099.80
2017-12-22T09:33:29.769Z,97098.89
2017-12-22T09:35:57.280Z,97101.42
2017-12-22T09:38:24.748Z,97098.36
2017-12-22T09:40:52.212Z,97097.65
2017-12-22T09:43:19.697Z,97095.02
2017-12-22T09:45:47.217Z,97101.85
2017-12-22T09:48:14.663Z,97098.59
2017-12-22T09:50:42.145Z,97091.91
2017-12-22T09:53:09.613Z,97086.19
2017-12-22T09:55:37.128Z,97085.75
2017-12-22T09:58:04.617Z,97082.50
2017-12-22T10:00:32.085Z,97076.45
2017-12-22T10:02:59.565Z,97071.30
2017-12-22T10:05:27.045Z,97060.91
2017-12-22T10:07:54.532Z,97066.43
2017-12-22T10:10:22.024Z,97060.47
2017-12-22T10:12:49.497Z,97060.27
2017-12-22T10:15:16.978Z,97052.05
2017-12-22T10:17:44.441Z,97047.66
2017-12-22T10:20:11.926Z,97048.95
2017-12-22T10:22:39.393Z,97038.19
2017-12-22T10:25:06.909Z,97036.11
2017-12-22T10:27:34.413Z,97039.11
2017-12-22T10:30:01.877Z,97031.41
2017-12-22T10:32:29.422Z,97020.06
2017-12-22T10:34:56.926Z,97018.88
2017-12-22T10:37:24.389Z,97014.41
2017-12-22T10:39:51.870Z,97009.72
2017-12-22T10:42:19.344Z,96998.09
2017-12-22T10:44:46.828Z,97000.40
2017-12-22T10:47:14.305Z,97001.70
2017-12-22T10:49:41.772Z,96994.03
2017-12-22T10:52:09.276Z,96998.02
2017-12-22T10:54:36.746Z,97001.91
2017-12-22T10:57:04.217Z,96998.69
2017-12-22T10:59:31.754Z,96999.36
2017-12-22T11:01:59.216Z,96996.72
2017-12-22T11:04:26.709Z,96994.50
2017-12-22T11:06:54.173Z,96987.30
2017-12-22T11:09:21.686Z,96992.31
2017-12-22T11:11:49.168Z,96983.05
2017-12-22T11:14:16.637Z,96993.63
2017-12-22T11:16:44.121Z,96982.98
2017-12-22T11:19:11.590Z,96984.25
2017-12-22T11:21:39.053Z,96970.03
2017-12-22T11:24:06.537Z,96969.75
2017-12-22T11:26:33.997Z,96964.51
2017-12-22T11:29:01.472Z,96962.31
2017-12-22T11:31:29.005Z,96958.89
2017-12-22T11:33:56.561Z,96957.55
2017-12-22T11:36:24.027Z,96961.00
2017-12-22T11:38:51.504Z,96957.11
2017-12-22T11:41:19.039Z,96957.52
2017-12-22T11:43:46.505Z,96956.95
2017-12-22T11:46:13.980Z,96958.58
2017-12-22T11:48:41.512Z,96952.95
2017-12-22T11:51:08.976Z,96951.77
2017-12-22T11:53:36.460Z,96951.23
2017-12-22T11:56:03.925Z,96948.78
2017-12-22T11:58:31.393Z,96947.20
2017-12-22T12:00:58.877Z,96946.75
2017-12-22T12:03:26.341Z,96941.42
2017-12-22T12:05:53.798Z,96938.21
2017-12-22T12:08:21.277Z,96939.95
2017-12-22T12:10:48.728Z,96935.03
2017-12-22T12:13:16.180Z,96935.44
2017-12-22T12:15:43.656Z,96937.80
2017-12-22T12:18:11.117Z,96933.16
2017-12-22T12:20:38.585Z,96931.33
2017-12-22T12:23:06.105Z,96934.88
2017-12-22T12:25:33.602Z,96931.86
2017-12-22T12:28:01.077Z,96932.84
2017-12-22T12:30:28.578Z,96928.13
2017-12-22T12:32:56.054Z,96926.00
2017-12-22T12:35:23.591Z,96923.55
2017-12-22T12:37:51.077Z,96923.16
2017-12-22T12:40:18.545Z,96914.92
2017-12-22T12:42:46.005Z,96922.98
2017-12-22T12:45:13.541Z,96917.33
2017-12-22T12:47:41.018Z,96915.38
2017-12-22T12:50:08.481Z,96908.13
2017-12-22T12:52:35.964Z,96909.84
2017-12-22T12:55:03.433Z,96904.91
2017-12-22T12:57:30.897Z,96901.94
2017-12-22T12:59:58.382Z,96900.09
2017-12-22T13:02:25.853Z,96899.81
2017-12-22T13:04:53.382Z,96894.36
2017-12-22T13:07:20.882Z,96902.05
2017-12-22T13:09:48.420Z,96898.19
2017-12-22T13:12:15.887Z,96897.45
2017-12-22T13:14:43.373Z,96902.82
2017-12-22T13:17:10.887Z,96905.72
2017-12-22T13:19:38.453Z,96914.55
2017-12-22T13:22:05.936Z,96907.88
2017-12-22T13:24:33.405Z,96913.24
2017-12-22T13:27:00.875Z,96915.05
2017-12-22T13:29:28.386Z,96920.08
2017-12-22T13:31:55.888Z,96920.56
2017-12-22T13:34:23.364Z,96917.31
2017-12-22T13:36:50.845Z,96923.00
2017-12-22T13:39:18.357Z,96925.44
2017-12-22T13:41:45.837Z,96923.52
2017-12-22T13:44:13.326Z,96926.16
2017-12-22T13:46:40.883Z,96927.75
2017-12-22T13:49:08.352Z,96921.03
2017-12-22T13:51:35.841Z,96921.89
2017-12-22T13:54:03.309Z,96921.16
2017-12-22T13:56:30.776Z,96915.47
2017-12-22T13:58:58.262Z,96917.54
2017-12-22T14:01:25.729Z,96918.41
2017-12-22T14:03:53.194Z,96915.08
2017-12-22T14:06:20.685Z,96918.20
2017-12-22T14:08:48.153Z,96921.27
2017-12-22T14:11:15.612Z,96930.89
2017-12-22T14:13:43.097Z,96928.13
2017-12-22T14:16:10.814Z,96921.84
2017-12-22T14:18:38.280Z,96921.73
2017-12-22T14:21:05.769Z,96928.53
2017-12-22T14:23:33.245Z,96937.35
2017-12-22T14:26:00.705Z,96933.94
2017-12-22T14:28:28.258Z,96936.72
2017-12-22T14:30:55.717Z,96947.14
2017-12-22T14:33:23.197Z,96948.14
2017-12-22T14:35:50.720Z,96947.45
2017-12-22T14:38:18.188Z,96938.17
2017-12-22T14:40:45.653Z,96941.14
2017-12-22T14:43:13.181Z,96936.13
2017-12-22T14:45:40.682Z,96934.13
2017-12-22T14:48:08.149Z,96943.26
2017-12-22T14:50:35.724Z,96945.37
2017-12-22T14:53:03.185Z,96951.67
2017-12-22T14:55:30.648Z,96947.81
2017-12-22T14:57:58.129Z,96939.88
2017-12-22T15:00:25.601Z,96950.11
2017-12-22T15:02:53.062Z,96955.55
2017-12-22T15:05:20.873Z,96954.57
2017-12-22T15:07:48.422Z,96952.86
2017-12-22T15:10:15.884Z,96955.80
2017-12-22T15:12:43.376Z,96945.45
2017-12-22T15:15:10.828Z,96942.14
2017-12-22T15:17:38.293Z,96946.00
2017-12-22T15:20:05.781Z,96949.30
2017-12-22T15:22:33.249Z,96961.55
2017-12-22T15:25:00.721Z,96968.37
2017-12-22T15:27:28.212Z,96972.91
2017-12-22T15:29:55.669Z,96971.23
2017-12-22T15:32:23.129Z,96968.64
2017-12-22T15:34:50.608Z,96967.56
2017-12-22T15:37:18.070Z,96971.30
2017-12-22T15:39:45.533Z,96974.75
2017-12-22T15:42:13.972Z,96980.55
2017-12-22T15:44:41.433Z,96985.14
2017-12-22T15:47:08.906Z,96985.84
2017-12-22T15:49:36.392Z,96985.52
2017-12-22T15:52:03.861Z,96994.34
2017-12-22T15:54:31.325Z,96995.56
2017-12-22T15:56:58.808Z,96996.53
2017-12-22T15:59:26.331Z,96996.20
2017-12-22T16:01:53.778Z,96997.87
2017-12-22T16:04:21.256Z,96997.94
2017-12-22T16:06:48.734Z,96989.48
2017-12-22T16:09:16.273Z,96995.83
2017-12-22T16:11:43.753Z,96991.27
2017-12-22T16:14:13.759Z,96989.22
2017-12-22T16:16:41.225Z,96990.19
2017-12-22T16:19:08.768Z,96998.61
2017-12-22T16:21:36.277Z,96995.70
2017-12-22T16:24:03.748Z,97004.25
2017-12-22T16:26:31.232Z,97004.58
2017-12-22T16:28:58.721Z,97002.20
2017-12-22T16:31:26.185Z,96999.80
2017-12-22T16:33:53.725Z,96997.34
2017-12-22T16:36:21.192Z,97002.20
2017-12-22T16:38:48.656Z,96995.05
2017-12-22T16:41:16.143Z,97000.69
2017-12-22T16:43:43.647Z,97004.36
2017-12-22T16:46:11.107Z,96999.35
2017-12-22T16:48:38.576Z,96996.48
2017-12-22T16:51:06.056Z,97006.14
2017-12-22T16:53:33.516Z,97012.95
2017-12-22T16:56:01.030Z,97014.96
2017-12-22T16:58:28.518Z,97014.96
2017-12-22T17:00:55.981Z,97007.91
2017-12-22T17:03:23.460Z,97006.17
2017-12-22T17:05:50.928Z,97007.70
2017-12-22T17:08:18.432Z,97014.22
2017-12-22T17:10:45.907Z,97010.44
2017-12-22T17:13:13.447Z,97019.93
2017-12-22T17:15:40.924Z,97020.41
2017-12-22T17:18:08.392Z,97025.53
2017-12-22T17:20:35.873Z,97028.39
2017-12-22T17:23:03.792Z,97036.40
2017-12-22T17:25:31.272Z,97036.81
2017-12-22T17:27:58.745Z,97038.89
2017-12-22T17:30:26.274Z,97037.18
2017-12-22T17:32:53.717Z,97038.89
2017-12-22T17:35:21.180Z,97042.94
2017-12-22T17:37:48.661Z,97042.23
2017-12-22T17:40:16.120Z,97051.91
2017-12-22T17:42:43.604Z,97054.22
2017-12-22T17:45:11.068Z,97059.73
2017-12-22T17:47:38.567Z,97067.72
2017-12-22T17:50:06.062Z,97066.49
2017-12-22T17:52:33.539Z,97062.74
2017-12-22T17:55:01.001Z,97065.64
2017-12-22T17:57:28.484Z,97071.50
2017-12-22T17:59:55.949Z,97070.06
2017-12-22T18:02:23.417Z,97068.88
2017-12-22T18:04:50.900Z,97067.54
2017-12-22T18:07:18.364Z,97068.83
2017-12-22T18:09:45.825Z,97067.09
2017-12-22T18:12:13.310Z,97072.14
2017-12-22T18:14:40.785Z,97079.87
2017-12-22T18:17:08.248Z,97087.62
2017-12-22T18:19:35.724Z,97090.66
2017-12-22T18:22:03.192Z,97095.70
2017-12-22T18:24:30.658Z,97101.16
2017-12-22T18:26:58.152Z,97103.23
2017-12-22T18:29:25.617Z,97106.02
2017-12-22T18:31:53.087Z,97113.28
2017-12-22T18:34:20.573Z,97113.70
2017-12-22T18:36:48.044Z,97119.73
2017-12-22T18:39:15.517Z,97113.98
2017-12-22T18:41:43.020Z,97109.38
2017-12-22T18:44:10.496Z,97108.22
2017-12-22T18:46:37.988Z,97107.53
2017-12-22T18:49:05.469Z,97119.16
2017-12-22T18:51:32.943Z,97115.78
2017-12-22T18:54:00.404Z,97114.66
2017-12-22T18:56:27.884Z,97104.47
2017-12-22T18:58:55.350Z,97098.70
2017-12-22T19:01:22.825Z,97100.31
2017-12-22T19:03:50.317Z,97112.03
2017-12-22T19:06:17.781Z,97112.51
2017-12-22T19:08:45.260Z,97111.17
2017-12-22T19:11:12.725Z,97114.59
2017-12-22T19:13:40.208Z,97109.14
2017-12-22T19:16:07.673Z,97110.73
2017-12-22T19:18:35.137Z,97118.17
2017-12-22T19:21:02.616Z,97119.36
2017-12-22T19:23:30.080Z,97119.84
2017-12-22T19:25:57.565Z,97118.64
2017-12-22T19:28:25.030Z,97121.55
2017-12-22T19:30:52.513Z,97118.75
2017-12-22T19:33:19.977Z,97111.11
2017-12-22T19:35:47.442Z,97121.58
2017-12-22T19:38:14.933Z,97107.50
2017-12-22T19:40:42.407Z,97117.25
2017-12-22T19:43:09.925Z,97118.38
2017-12-22T19:45:37.385Z,97120.42
2017-12-22T19:48:04.865Z,97121.34
2017-12-22T19:50:32.329Z,97123.01
2017-12-22T19:52:59.797Z,97129.18
2017-12-22T19:55:27.281Z,97130.68
2017-12-22T19:57:54.744Z,97134.36
2017-12-22T20:00:22.232Z,97136.47
2017-12-22T20:02:49.721Z,97130.51
2017-12-22T20:05:17.213Z,97132.55
2017-12-22T20:07:44.688Z,97131.42
2017-12-22T20:10:12.155Z,97138.00
2017-12-22T20:12:39.650Z,97141.38
2017-12-22T20:15:07.145Z,97147.24
2017-12-22T20:17:34.625Z,97152.63
2017-12-22T20:20:02.114Z,97159.07
2017-12-22T20:22:29.585Z,97150.69
2017-12-22T20:24:57.049Z,97153.48
2017-12-22T20:27:24.733Z,97164.83
2017-12-22T20:29:52.225Z,97160.30
2017-12-22T20:32:19.697Z,97161.05
2017-12-22T20:34:47.192Z,97163.51
2017-12-22T20:37:14.692Z,97171.05
2017-12-22T20:39:42.157Z,97167.73
2017-12-22T20:42:09.637Z,97170.29
2017-12-22T20:44:37.109Z,97174.45
2017-12-22T20:47:04.605Z,97184.91
2017-12-22T20:49:32.124Z,97180.83
2017-12-22T20:51:59.588Z,97188.39
2017-12-22T20:54:27.072Z,97183.75
2017-12-22T20:56:54.537Z,97185.52
2017-12-22T20:59:22.020Z,97190.56
2017-12-22T21:01:49.486Z,97189.24
2017-12-22T21:04:16.961Z,97191.13
2017-12-22T21:06:44.445Z,97184.20
2017-12-22T21:09:11.917Z,97192.17
2017-12-22T21:11:39.387Z,97189.24
2017-12-22T21:14:06.869Z,97199.23
2017-12-22T21:16:34.341Z,97201.34
2017-12-22T21:19:01.804Z,97198.38
2017-12-22T21:21:29.284Z,97202.67
2017-12-22T21:23:56.750Z,97195.98
2017-12-22T21:26:24.232Z,97192.23
2017-12-22T21:28:51.956Z,97199.84
2017-12-22T21:31:19.733Z,97208.23
2017-12-22T21:33:47.200Z,97208.38
2017-12-22T21:36:14.673Z,97197.09
2017-12-22T21:38:42.176Z,97192.58
2017-12-22T21:41:09.641Z,97188.77
2017-12-22T21:43:37.125Z,97197.12
2017-12-22T21:46:04.589Z,97200.59
2017-12-22T21:48:32.068Z,97201.92
2017-12-22T21:50:59.533Z,97201.98
2017-12-22T21:53:26.997Z,97207.88
2017-12-22T21:55:54.480Z,97218.37
2017-12-22T21:58:21.966Z,97215.83
2017-12-22T22:00:49.457Z,97225.88
2017-12-22T22:03:16.922Z,97236.34
2017-12-22T22:05:44.404Z,97236.41
2017-12-22T22:08:11.868Z,97235.19
2017-12-22T22:10:39.332Z,97227.14
2017-12-22T22:13:06.812Z,97227.97
2017-12-22T22:15:34.281Z,97229.73
2017-12-22T22:18:01.769Z,97233.83
2017-12-22T22:20:29.256Z,97229.47
2017-12-22T22:22:56.720Z,97234.17
2017-12-22T22:25:24.200Z,97232.13
2017-12-22T22:27:51.773Z,97228.31
2017-12-22T22:30:19.253Z,97231.20
2017-12-22T22:32:46.717Z,97227.87
2017-12-22T22:35:14.200Z,97223.70
2017-12-22T22:37:41.664Z,97221.19
2017-12-22T22:40:09.129Z,97220.70
2017-12-22T22:42:36.609Z,97218.16
2017-12-22T22:45:04.075Z,97220.73
2017-12-22T22:47:31.540Z,97230.23
2017-12-22T22:49:59.025Z,97232.00
2017-12-22T22:52:26.550Z,97235.84
2017-12-22T22:54:54.021Z,97228.27
2017-12-22T22:57:21.505Z,97226.58
2017-12-22T22:59:48.970Z,97219.55
2017-12-22T23:02:16.438Z,97221.59
2017-12-22T23:04:43.925Z,97219.92
2017-12-22T23:07:11.385Z,97226.20
2017-12-22T23:09:38.856Z,97215.28
2017-12-22T23:12:06.341Z,97207.78
2017-12-22T23:14:33.812Z,97212.83
2017-12-22T23:17:01.280Z,97210.30
2017-12-22T23:19:28.817Z,97211.19
2017-12-22T23:21:56.284Z,97212.99
2017-12-22T23:24:23.749Z,97204.26
2017-12-22T23:26:51.232Z,97208.95
2017-12-22T23:29:18.697Z,97210.75
2017-12-22T23:31:54.721Z,97211.98
2017-12-22T23:34:22.192Z,97208.14
2017-12-22T23:36:49.656Z,97205.05
2017-12-22T23:39:17.152Z,97206.30
2017-12-22T23:41:44.620Z,97205.96
2017-12-22T23:44:12.104Z,97210.25
2017-12-22T23:46:39.585Z,97212.45
2017-12-22T23:49:07.052Z,97212.27
2017-12-22T23:51:34.525Z,97205.59
2017-12-22T23:54:02.019Z,97206.69
2017-12-22T23:56:29.488Z,97202.49
2017-12-22T23:58:57.002Z,97202.49
